Time;durP1;ratioP1;P1;durP2;ratioP2;P2;SDS_P1;SDS_P2;PMS_P1;PMS_P2;Temp;Humidity;BMP_temperature;BMP_pressure;BME280_temperature;BME280_humidity;BME280_pressure;Samples;Min_cycle;Max_cycle;Signal;HPM_P1;HPM_P2
2024/01/08 00:00:40;;;;;;;7.23;5.43;;;;;;;-142.06;100.00;64312.41;5051893;28;20189;-78
2024/01/08 00:03:07;;;;;;;7.47;5.97;;;;;;;-142.06;100.00;64312.41;5050337;28;20193;-78
2024/01/08 00:05:38;;;;;;;9.00;6.40;;;;;;;-142.06;100.00;64312.41;5050281;28;20225;-78
2024/01/08 00:08:09;;;;;;;10.83;6.57;;;;;;;-142.06;100.00;64312.41;5049152;28;20186;-78
2024/01/08 00:10:37;;;;;;;9.03;6.30;;;;;;;-142.06;100.00;64312.41;5054354;28;20204;-78
2024/01/08 00:13:04;;;;;;;8.97;6.03;;;;;;;-142.06;100.00;64312.41;5050070;28;20201;-78
2024/01/08 00:15:32;;;;;;;8.93;6.93;;;;;;;-142.06;100.00;64312.41;5052705;28;20197;-79
2024/01/08 00:17:58;;;;;;;9.20;6.77;;;;;;;-142.06;100.00;64312.41;5050423;28;20202;-79
2024/01/08 00:20:26;;;;;;;7.90;6.33;;;;;;;-142.06;100.00;64312.41;5051398;28;20198;-79
2024/01/08 00:22:53;;;;;;;8.37;6.50;;;;;;;-142.06;100.00;64312.41;5051336;28;20201;-79
2024/01/08 00:25:21;;;;;;;7.37;5.23;;;;;;;-142.06;100.00;64312.41;5052092;28;20209;-78
2024/01/08 00:27:51;;;;;;;9.93;6.70;;;;;;;-142.06;100.00;64312.41;5048746;28;20290;-79
2024/01/08 00:30:18;;;;;;;8.60;6.33;;;;;;;-142.06;100.00;64312.41;5049995;28;20193;-79
2024/01/08 00:32:47;;;;;;;8.77;6.57;;;;;;;-142.06;100.00;64312.41;5051215;28;20243;-78
2024/01/08 00:35:15;;;;;;;8.20;6.17;;;;;;;-142.06;100.00;64312.41;5051052;28;20276;-80
2024/01/08 00:37:41;;;;;;;9.20;6.33;;;;;;;-142.06;100.00;64312.41;5051242;28;20217;-79
2024/01/08 00:40:09;;;;;;;10.40;6.73;;;;;;;-142.06;100.00;64312.41;5052223;28;20243;-78
2024/01/08 00:42:37;;;;;;;9.60;6.50;;;;;;;-142.06;100.00;64312.41;5051442;28;20539;-78
2024/01/08 00:45:05;;;;;;;8.70;5.80;;;;;;;-142.06;100.00;64312.41;5049394;28;20200;-81
2024/01/08 00:47:32;;;;;;;8.87;6.23;;;;;;;-142.06;100.00;64312.41;5049590;28;20255;-78
2024/01/08 00:50:00;;;;;;;8.20;5.93;;;;;;;-142.06;100.00;64312.41;5049738;28;20243;-78
2024/01/08 00:52:28;;;;;;;8.63;7.00;;;;;;;-142.06;100.00;64312.41;5052199;28;20244;-79
2024/01/08 00:54:58;;;;;;;9.90;6.57;;;;;;;-142.06;100.00;64312.41;5049549;28;20678;-80
2024/01/08 00:57:25;;;;;;;9.97;6.77;;;;;;;-142.06;100.00;64312.41;5051089;28;20194;-82
2024/01/08 00:59:52;;;;;;;8.57;5.93;;;;;;;-142.06;100.00;64312.41;5050981;28;20216;-78
2024/01/08 01:02:18;;;;;;;8.13;5.93;;;;;;;-142.06;100.00;64312.41;5051228;28;20197;-78
2024/01/08 01:04:45;;;;;;;8.73;6.83;;;;;;;-142.06;100.00;64312.41;5050670;28;20247;-79
2024/01/08 01:07:13;;;;;;;10.20;7.47;;;;;;;-142.06;100.00;64312.41;5051360;28;20299;-78
2024/01/08 01:09:39;;;;;;;9.10;7.03;;;;;;;-142.06;100.00;64312.41;5049514;28;20194;-78
2024/01/08 01:12:06;;;;;;;9.90;6.93;;;;;;;-142.06;100.00;64312.41;5050021;28;20194;-78
2024/01/08 01:14:33;;;;;;;10.33;7.30;;;;;;;-142.06;100.00;64312.41;5050568;28;20201;-78
2024/01/08 01:17:00;;;;;;;9.43;6.83;;;;;;;-142.06;100.00;64312.41;5051175;28;20198;-79
2024/01/08 01:19:27;;;;;;;9.77;7.30;;;;;;;-142.06;100.00;64312.41;5050672;28;20198;-78
2024/01/08 01:21:55;;;;;;;9.77;6.87;;;;;;;-142.06;100.00;64312.41;5051127;28;20240;-78
2024/01/08 01:24:22;;;;;;;9.37;7.03;;;;;;;-142.06;100.00;64312.41;5052344;28;20194;-78
2024/01/08 01:26:48;;;;;;;9.10;6.73;;;;;;;-142.06;100.00;64312.41;5054806;28;20221;-78
2024/01/08 01:29:15;;;;;;;9.67;6.83;;;;;;;-142.06;100.00;64312.41;5054538;28;20654;-78
2024/01/08 01:31:42;;;;;;;10.03;6.60;;;;;;;-142.06;100.00;64312.41;5054796;28;20315;-79
2024/01/08 01:34:10;;;;;;;10.63;6.73;;;;;;;-142.06;100.00;64312.41;5054862;28;20194;-78
2024/01/08 01:36:38;;;;;;;8.37;5.90;;;;;;;-142.06;100.00;64312.41;5054444;28;20296;-78
2024/01/08 01:39:05;;;;;;;7.97;7.00;;;;;;;-142.06;100.00;64312.41;5054579;28;20251;-78
2024/01/08 01:41:32;;;;;;;9.27;6.27;;;;;;;-142.06;100.00;64312.41;5054633;28;20267;-78
2024/01/08 01:43:59;;;;;;;8.53;6.53;;;;;;;-142.06;100.00;64312.41;5052998;28;20272;-79
2024/01/08 01:46:38;;;;;;;9.87;7.17;;;;;;;-142.06;100.00;64312.41;5054321;28;20268;-78
2024/01/08 01:49:05;;;;;;;9.50;6.47;;;;;;;-142.06;100.00;64312.41;5052818;28;20189;-78
2024/01/08 01:51:32;;;;;;;10.17;6.40;;;;;;;-142.06;100.00;64312.41;5052850;28;20194;-78
2024/01/08 01:54:00;;;;;;;9.57;6.70;;;;;;;-142.06;100.00;64312.41;5052332;28;20201;-80
2024/01/08 01:56:27;;;;;;;8.97;6.40;;;;;;;-142.06;100.00;64312.41;5054283;28;20197;-78
2024/01/08 01:58:54;;;;;;;8.73;6.43;;;;;;;-142.06;100.00;64312.41;5051532;28;20309;-78
2024/01/08 02:01:21;;;;;;;9.40;6.47;;;;;;;-142.06;100.00;64312.41;5053843;28;20200;-77
2024/01/08 02:03:48;;;;;;;8.83;6.73;;;;;;;-142.06;100.00;64312.41;5053877;28;20198;-77
2024/01/08 02:06:16;;;;;;;9.03;6.57;;;;;;;-142.06;100.00;64312.41;5052418;28;20218;-78
2024/01/08 02:08:43;;;;;;;10.00;6.17;;;;;;;-142.06;100.00;64312.41;5052424;28;20194;-78
2024/01/08 02:11:10;;;;;;;11.97;7.30;;;;;;;-142.06;100.00;64312.41;5052286;28;20201;-78
2024/01/08 02:13:37;;;;;;;7.07;4.87;;;;;;;-142.06;100.00;64312.41;5053979;28;20709;-78
2024/01/08 02:16:04;;;;;;;10.63;7.50;;;;;;;-142.06;100.00;64312.41;5053294;28;20247;-78
2024/01/08 02:18:31;;;;;;;9.97;7.03;;;;;;;-142.06;100.00;64312.41;5052745;28;20189;-79
2024/01/08 02:20:58;;;;;;;10.07;7.47;;;;;;;-142.06;100.00;64312.41;5053230;28;20202;-78
2024/01/08 02:23:24;;;;;;;9.23;7.07;;;;;;;-142.06;100.00;64312.41;5053664;28;20189;-78
2024/01/08 02:25:51;;;;;;;8.80;6.60;;;;;;;-142.06;100.00;64312.41;5051532;28;20271;-80
2024/01/08 02:28:18;;;;;;;9.60;6.20;;;;;;;-142.06;100.00;64312.41;5053579;28;20278;-78
2024/01/08 02:30:45;;;;;;;9.43;6.73;;;;;;;-142.06;100.00;64312.41;5051685;28;20202;-78
2024/01/08 02:33:12;;;;;;;9.07;6.57;;;;;;;-142.06;100.00;64312.41;5050692;28;20289;-78
2024/01/08 02:35:38;;;;;;;11.27;7.13;;;;;;;-142.06;100.00;64312.41;5054348;28;20243;-78
2024/01/08 02:38:05;;;;;;;10.80;8.07;;;;;;;-142.06;100.00;64312.41;5053811;28;20220;-78
2024/01/08 02:40:32;;;;;;;9.73;7.20;;;;;;;-142.06;100.00;64312.41;5050634;28;20277;-80
2024/01/08 02:42:59;;;;;;;8.70;5.83;;;;;;;-142.06;100.00;64312.41;5054865;28;20190;-78
2024/01/08 02:45:26;;;;;;;9.57;6.77;;;;;;;-142.06;100.00;64312.41;5052347;28;20193;-78
2024/01/08 02:47:52;;;;;;;8.43;6.23;;;;;;;-142.06;100.00;64312.41;5053147;28;20229;-78
2024/01/08 02:50:19;;;;;;;9.83;6.83;;;;;;;-142.06;100.00;64312.41;5052976;28;20204;-78
2024/01/08 02:52:46;;;;;;;9.70;6.93;;;;;;;-142.06;100.00;64312.41;5053109;28;20198;-77
2024/01/08 02:55:13;;;;;;;9.63;6.20;;;;;;;-142.06;100.00;64312.41;5050393;28;20189;-78
2024/01/08 02:57:39;;;;;;;8.67;6.57;;;;;;;-142.06;100.00;64312.41;5052953;28;20201;-78
2024/01/08 03:00:08;;;;;;;8.83;6.77;;;;;;;-142.06;100.00;64312.41;5053091;28;20692;-77
2024/01/08 03:02:36;;;;;;;10.20;6.73;;;;;;;-142.06;100.00;64312.41;5054269;28;20566;-78
2024/01/08 03:05:03;;;;;;;8.03;6.53;;;;;;;-142.06;100.00;64312.41;5051661;28;20223;-77
2024/01/08 03:07:30;;;;;;;8.83;6.40;;;;;;;-142.06;100.00;64312.41;5051769;28;20213;-77
2024/01/08 03:09:58;;;;;;;8.60;6.37;;;;;;;-142.06;100.00;64312.41;5050097;28;20189;-77
2024/01/08 03:12:25;;;;;;;9.50;6.43;;;;;;;-142.06;100.00;64312.41;5051355;28;20197;-78
2024/01/08 03:14:52;;;;;;;9.60;6.87;;;;;;;-142.06;100.00;64312.41;5051597;28;20222;-77
2024/01/08 03:17:19;;;;;;;9.27;6.40;;;;;;;-142.06;100.00;64312.41;5052711;28;20265;-78
2024/01/08 03:19:46;;;;;;;11.30;6.30;;;;;;;-142.06;100.00;64312.41;5048492;28;20202;-78
2024/01/08 03:22:13;;;;;;;10.03;6.23;;;;;;;-142.06;100.00;64312.41;5052461;28;20197;-78
2024/01/08 03:24:40;;;;;;;9.37;6.73;;;;;;;-142.06;100.00;64312.41;5052185;28;20197;-78
2024/01/08 03:27:07;;;;;;;9.97;7.40;;;;;;;-142.06;100.00;64312.41;5052185;28;20221;-77
2024/01/08 03:29:34;;;;;;;7.47;6.30;;;;;;;-142.06;100.00;64312.41;5057782;28;20200;-78
2024/01/08 03:32:02;;;;;;;9.20;6.90;;;;;;;-142.06;100.00;64312.41;5051907;28;20271;-78
2024/01/08 03:34:29;;;;;;;9.80;6.77;;;;;;;-142.06;100.00;64312.41;5052515;28;20275;-78
2024/01/08 03:36:56;;;;;;;9.87;6.60;;;;;;;-142.06;100.00;64312.41;5051734;28;20237;-78
2024/01/08 03:39:23;;;;;;;7.80;5.83;;;;;;;-142.06;100.00;64312.41;5052474;28;20197;-78
2024/01/08 03:41:50;;;;;;;8.53;6.43;;;;;;;-142.06;100.00;64312.41;5050451;28;20247;-78
2024/01/08 03:44:16;;;;;;;8.93;6.80;;;;;;;-142.06;100.00;64312.41;5052166;28;20202;-79
2024/01/08 03:46:43;;;;;;;8.77;6.87;;;;;;;-142.06;100.00;64312.41;5050825;28;20240;-78
2024/01/08 03:49:11;;;;;;;9.47;6.90;;;;;;;-142.06;100.00;64312.41;5050827;28;20194;-78
2024/01/08 03:51:38;;;;;;;9.27;7.07;;;;;;;-142.06;100.00;64312.41;5050411;28;20305;-78
2024/01/08 03:54:05;;;;;;;10.13;7.10;;;;;;;-142.06;100.00;64312.41;5051847;28;20231;-78
2024/01/08 03:56:32;;;;;;;10.40;7.20;;;;;;;-142.06;100.00;64312.41;5050717;28;20659;-78
2024/01/08 03:58:59;;;;;;;9.57;7.17;;;;;;;-142.06;100.00;64312.41;5051711;28;20196;-78
2024/01/08 04:01:26;;;;;;;10.53;6.73;;;;;;;-142.06;100.00;64312.41;5051939;28;20200;-78
2024/01/08 04:03:52;;;;;;;8.57;5.80;;;;;;;-142.06;100.00;64312.41;5051949;28;20197;-78
2024/01/08 04:06:19;;;;;;;8.20;5.77;;;;;;;-142.06;100.00;64312.41;5051551;28;20241;-78
2024/01/08 04:08:46;;;;;;;7.97;6.10;;;;;;;-142.06;100.00;64312.41;5051889;28;20197;-78
2024/01/08 04:11:13;;;;;;;9.00;6.77;;;;;;;-142.06;100.00;64312.41;5034092;28;20209;-79
2024/01/08 04:13:40;;;;;;;8.60;6.43;;;;;;;-142.06;100.00;64312.41;5051861;28;20193;-78
2024/01/08 04:16:07;;;;;;;8.13;5.93;;;;;;;-142.06;100.00;64312.41;5051682;28;20189;-78
2024/01/08 04:18:34;;;;;;;9.13;6.17;;;;;;;-142.06;100.00;64312.41;5051672;28;20193;-78
2024/01/08 04:21:01;;;;;;;8.10;6.50;;;;;;;-142.06;100.00;64312.41;5050245;28;20204;-79
2024/01/08 04:23:28;;;;;;;9.20;7.00;;;;;;;-142.06;100.00;64312.41;5055813;28;20195;-78
2024/01/08 04:25:55;;;;;;;9.63;6.90;;;;;;;-142.06;100.00;64312.41;5050969;28;20321;-78
2024/01/08 04:28:22;;;;;;;9.80;6.87;;;;;;;-142.06;100.00;64312.41;5051416;28;20194;-78
2024/01/08 04:30:48;;;;;;;9.80;7.33;;;;;;;-142.06;100.00;64312.41;5051514;28;20205;-78
2024/01/08 04:33:15;;;;;;;7.17;5.90;;;;;;;-142.06;100.00;64312.41;5051491;28;20198;-78
2024/01/08 04:35:42;;;;;;;9.33;6.80;;;;;;;-142.06;100.00;64312.41;5051291;28;20197;-78
2024/01/08 04:38:09;;;;;;;8.43;6.53;;;;;;;-142.06;100.00;64312.41;5049658;28;20766;-78
2024/01/08 04:40:35;;;;;;;8.97;6.60;;;;;;;-142.06;100.00;64312.41;5051437;28;20213;-77
2024/01/08 04:43:02;;;;;;;8.60;6.80;;;;;;;-142.06;100.00;64312.41;5053997;28;20243;-78
2024/01/08 04:45:30;;;;;;;9.73;7.17;;;;;;;-142.06;100.00;64312.41;5054542;28;20228;-78
2024/01/08 04:47:56;;;;;;;9.57;6.73;;;;;;;-142.06;100.00;64312.41;5050799;28;20260;-78
2024/01/08 04:50:23;;;;;;;8.43;6.53;;;;;;;-142.06;100.00;64312.41;5053932;28;20203;-78
2024/01/08 04:52:50;;;;;;;9.23;6.70;;;;;;;-142.06;100.00;64312.41;5051072;28;20197;-80
2024/01/08 04:55:19;;;;;;;8.90;6.33;;;;;;;-142.06;100.00;64312.41;5055033;28;20205;-79
2024/01/08 04:57:47;;;;;;;11.47;6.97;;;;;;;-142.06;100.00;64312.41;5061869;28;20220;-78
2024/01/08 05:00:14;;;;;;;9.67;7.00;;;;;;;-142.06;100.00;64312.41;5058948;28;20198;-78
2024/01/08 05:02:41;;;;;;;10.27;6.30;;;;;;;-142.06;100.00;64312.41;5041909;28;20193;-79
2024/01/08 05:05:08;;;;;;;9.10;7.07;;;;;;;-142.06;100.00;64312.41;5057861;28;20197;-78
2024/01/08 05:07:35;;;;;;;9.20;6.00;;;;;;;-142.06;100.00;64312.41;5057090;28;20213;-79
2024/01/08 05:10:02;;;;;;;9.80;6.87;;;;;;;-142.06;100.00;64312.41;5056975;28;20189;-78
2024/01/08 05:12:29;;;;;;;8.27;6.23;;;;;;;-142.06;100.00;64312.41;5056135;28;20208;-78
2024/01/08 05:14:56;;;;;;;9.23;6.87;;;;;;;-142.06;100.00;64312.41;5053288;28;20201;-78
2024/01/08 05:17:23;;;;;;;10.40;6.50;;;;;;;-142.06;100.00;64312.41;5055850;28;20208;-78
2024/01/08 05:19:52;;;;;;;11.00;7.37;;;;;;;-142.06;100.00;64312.41;5057645;28;20196;-78
2024/01/08 05:22:20;;;;;;;8.97;6.43;;;;;;;-142.06;100.00;64312.41;5057558;28;20194;-78
2024/01/08 05:24:47;;;;;;;9.10;6.97;;;;;;;-142.06;100.00;64312.41;5054634;28;20189;-78
2024/01/08 05:27:14;;;;;;;9.40;7.20;;;;;;;-142.06;100.00;64312.41;5056405;28;20217;-79
2024/01/08 05:29:41;;;;;;;10.10;7.00;;;;;;;-142.06;100.00;64312.41;5060155;28;20197;-78
2024/01/08 05:32:08;;;;;;;9.90;6.73;;;;;;;-142.06;100.00;64312.41;5053558;28;20217;-78
2024/01/08 05:34:35;;;;;;;10.80;6.93;;;;;;;-142.06;100.00;64312.41;5054065;28;20190;-79
2024/01/08 05:37:02;;;;;;;11.23;6.33;;;;;;;-142.06;100.00;64312.41;5053014;28;20221;-78
2024/01/08 05:39:29;;;;;;;10.83;7.07;;;;;;;-142.06;100.00;64312.41;5052935;28;20650;-78
2024/01/08 05:41:56;;;;;;;10.77;7.20;;;;;;;-142.06;100.00;64312.41;5054446;28;20276;-79
2024/01/08 05:44:23;;;;;;;10.10;7.50;;;;;;;-142.06;100.00;64312.41;5052616;28;20201;-78
2024/01/08 05:46:50;;;;;;;11.97;8.20;;;;;;;-142.06;100.00;64312.41;5053854;28;20233;-78
2024/01/08 05:49:16;;;;;;;9.47;6.70;;;;;;;-142.06;100.00;64312.41;5052874;28;20200;-79
2024/01/08 05:51:43;;;;;;;11.10;7.50;;;;;;;-142.06;100.00;64312.41;5054182;28;20190;-79
2024/01/08 05:54:10;;;;;;;9.00;6.60;;;;;;;-142.06;100.00;64312.41;5054069;28;20194;-78
2024/01/08 05:56:37;;;;;;;8.63;6.53;;;;;;;-142.06;100.00;64312.41;5053823;28;20198;-79
2024/01/08 05:59:04;;;;;;;9.37;6.13;;;;;;;-142.06;100.00;64312.41;5053878;28;20223;-82
2024/01/08 06:01:31;;;;;;;10.23;7.40;;;;;;;-142.06;100.00;64312.41;5053755;28;20185;-78
2024/01/08 06:03:58;;;;;;;10.63;7.80;;;;;;;-142.06;100.00;64312.41;5053761;28;20666;-79
2024/01/08 06:06:25;;;;;;;9.53;6.70;;;;;;;-142.06;100.00;64312.41;5053589;28;20669;-79
2024/01/08 06:08:52;;;;;;;8.07;6.10;;;;;;;-142.06;100.00;64312.41;5053969;28;20217;-79
2024/01/08 06:11:18;;;;;;;11.37;6.77;;;;;;;-142.06;100.00;64312.41;5053112;28;20193;-79
2024/01/08 06:13:45;;;;;;;11.53;6.93;;;;;;;-142.06;100.00;64312.41;5053670;28;20202;-79
2024/01/08 06:16:18;;;;;;;10.40;6.30;;;;;;;-142.06;100.00;64312.41;5053837;28;20232;-79
2024/01/08 06:18:45;;;;;;;9.73;6.70;;;;;;;-142.06;100.00;64312.41;5053114;28;20728;-79
2024/01/08 06:21:12;;;;;;;9.30;6.67;;;;;;;-142.06;100.00;64312.41;5049682;28;20208;-79
2024/01/08 06:23:39;;;;;;;11.20;7.00;;;;;;;-142.06;100.00;64312.41;5052222;28;20216;-79
2024/01/08 06:26:05;;;;;;;11.13;7.13;;;;;;;-142.06;100.00;64312.41;5053501;28;20217;-79
2024/01/08 06:28:32;;;;;;;10.33;6.63;;;;;;;-142.06;100.00;64312.41;5053525;28;20217;-79
2024/01/08 06:31:03;;;;;;;10.60;6.67;;;;;;;-142.06;100.00;64312.41;5051860;28;20281;-79
2024/01/08 06:33:29;;;;;;;10.10;7.10;;;;;;;-142.06;100.00;64312.41;5053008;28;20209;-79
2024/01/08 06:35:57;;;;;;;11.50;6.80;;;;;;;-142.06;100.00;64312.41;5052804;28;20186;-79
2024/01/08 06:38:23;;;;;;;8.77;6.77;;;;;;;-142.06;100.00;64312.41;5053229;28;20222;-78
2024/01/08 06:40:50;;;;;;;10.63;7.17;;;;;;;-142.06;100.00;64312.41;5052935;28;20185;-79
2024/01/08 06:43:17;;;;;;;8.23;6.23;;;;;;;-142.06;100.00;64312.41;5052975;28;20273;-79
2024/01/08 06:45:44;;;;;;;10.70;6.73;;;;;;;-142.06;100.00;64312.41;5049021;28;20193;-79
2024/01/08 06:48:11;;;;;;;9.90;6.77;;;;;;;-142.06;100.00;64312.41;5046315;28;20234;-79
2024/01/08 06:50:40;;;;;;;10.40;7.17;;;;;;;-142.06;100.00;64312.41;5053671;28;20197;-79
2024/01/08 06:53:07;;;;;;;11.17;7.07;;;;;;;-142.06;100.00;64312.41;5050513;28;20272;-79
2024/01/08 06:55:34;;;;;;;9.70;7.33;;;;;;;-142.06;100.00;64312.41;5051285;28;20193;-79
2024/01/08 06:58:01;;;;;;;11.67;8.20;;;;;;;-142.06;100.00;64312.41;5050299;28;20217;-79
2024/01/08 07:00:28;;;;;;;11.80;7.73;;;;;;;-142.06;100.00;64312.41;5052375;28;20244;-79
2024/01/08 07:02:55;;;;;;;9.40;7.40;;;;;;;-142.06;100.00;64312.41;5051620;28;20289;-80
2024/01/08 07:05:22;;;;;;;11.83;7.20;;;;;;;-142.06;100.00;64312.41;5051317;28;20276;-79
2024/01/08 07:07:49;;;;;;;12.07;7.40;;;;;;;-142.06;100.00;64312.41;5049897;28;20454;-79
2024/01/08 07:10:16;;;;;;;9.77;6.17;;;;;;;-142.06;100.00;64312.41;5051496;28;20190;-79
2024/01/08 07:12:43;;;;;;;13.00;7.97;;;;;;;-142.06;100.00;64312.41;5052884;28;20185;-80
2024/01/08 07:15:43;;;;;;;14.13;8.60;;;;;;;-142.06;100.00;64312.41;5052676;28;20204;-81
2024/01/08 07:18:10;;;;;;;10.53;7.33;;;;;;;-142.06;100.00;64312.41;5052038;28;20216;-81
2024/01/08 07:20:38;;;;;;;11.07;7.30;;;;;;;-142.06;100.00;64312.41;5051217;28;20202;-81
2024/01/08 07:23:08;;;;;;;11.23;8.47;;;;;;;-142.06;100.00;64312.41;5050634;28;20205;-80
2024/01/08 07:25:37;;;;;;;11.93;7.33;;;;;;;-142.06;100.00;64312.41;5034447;28;20220;-81
2024/01/08 07:28:06;;;;;;;12.73;7.33;;;;;;;-142.06;100.00;64312.41;5049419;28;20240;-81
2024/01/08 07:30:33;;;;;;;11.23;6.50;;;;;;;-142.06;100.00;64312.41;5052498;28;20193;-80
2024/01/08 07:32:59;;;;;;;11.00;7.87;;;;;;;-142.06;100.00;64312.41;5049065;28;20209;-80
2024/01/08 07:35:27;;;;;;;10.93;7.47;;;;;;;-142.06;100.00;64312.41;5047909;28;20193;-80
2024/01/08 07:37:57;;;;;;;12.80;7.60;;;;;;;-142.06;100.00;64312.41;5048994;28;20224;-80
2024/01/08 07:40:27;;;;;;;9.80;6.83;;;;;;;-142.06;100.00;64312.41;5049640;28;20201;-79
2024/01/08 07:42:56;;;;;;;11.20;7.13;;;;;;;-142.06;100.00;64312.41;5052437;28;20739;-80
2024/01/08 07:45:23;;;;;;;10.53;6.80;;;;;;;-142.06;100.00;64312.41;5051501;28;20209;-81
2024/01/08 07:47:50;;;;;;;12.50;7.80;;;;;;;-142.06;100.00;64312.41;5050967;28;20242;-80
2024/01/08 07:50:18;;;;;;;11.60;7.43;;;;;;;-142.06;100.00;64312.41;5031515;28;20202;-80
2024/01/08 07:52:45;;;;;;;12.30;7.13;;;;;;;-142.06;100.00;64312.41;5058311;28;20190;-81
2024/01/08 07:55:13;;;;;;;11.13;7.50;;;;;;;-142.06;100.00;64312.41;5051341;28;20192;-80
2024/01/08 07:57:39;;;;;;;10.77;7.10;;;;;;;-142.06;100.00;64312.41;5049900;28;20193;-80
2024/01/08 08:00:09;;;;;;;11.60;7.30;;;;;;;-142.06;100.00;64312.41;5050402;28;20335;-80
2024/01/08 08:02:36;;;;;;;11.77;7.67;;;;;;;-142.06;100.00;64312.41;5034843;28;20215;-80
2024/01/08 08:05:03;;;;;;;12.00;7.50;;;;;;;-142.06;100.00;64312.41;5036428;28;20614;-80
2024/01/08 08:07:32;;;;;;;13.40;7.87;;;;;;;-142.06;100.00;64312.41;5057569;28;20232;-80
2024/01/08 08:09:59;;;;;;;10.03;6.97;;;;;;;-142.06;100.00;64312.41;5011278;28;20194;-80
2024/01/08 08:12:26;;;;;;;12.50;6.93;;;;;;;-142.06;100.00;64312.41;5028006;28;20213;-81
2024/01/08 08:14:53;;;;;;;11.53;7.20;;;;;;;-142.06;100.00;64312.41;5051030;28;20196;-81
2024/01/08 08:17:20;;;;;;;10.87;6.80;;;;;;;-142.06;100.00;64312.41;5050305;28;20201;-82
2024/01/08 08:19:47;;;;;;;12.87;8.03;;;;;;;-142.06;100.00;64312.41;5034386;28;20209;-84
2024/01/08 08:22:14;;;;;;;11.37;7.63;;;;;;;-142.06;100.00;64312.41;5056821;28;20193;-83
2024/01/08 08:24:41;;;;;;;12.47;7.83;;;;;;;-142.06;100.00;64312.41;5050774;28;20201;-81
2024/01/08 08:27:09;;;;;;;10.97;7.70;;;;;;;-142.06;100.00;64312.41;5033984;28;20205;-81
2024/01/08 08:29:46;;;;;;;11.13;7.53;;;;;;;-142.06;100.00;64312.41;5030384;28;20193;-80
2024/01/08 08:32:13;;;;;;;10.60;6.57;;;;;;;-142.06;100.00;64312.41;5033837;28;20207;-80
2024/01/08 08:34:40;;;;;;;11.63;7.90;;;;;;;-142.06;100.00;64312.41;5031153;28;20277;-81
2024/01/08 08:37:08;;;;;;;12.87;8.70;;;;;;;-142.06;100.00;64312.41;5050560;28;20214;-81
2024/01/08 08:39:36;;;;;;;12.83;7.67;;;;;;;-142.06;100.00;64312.41;5050607;28;20204;-81
2024/01/08 08:42:03;;;;;;;11.40;7.90;;;;;;;-142.06;100.00;64312.41;5033869;28;20254;-81
2024/01/08 08:44:30;;;;;;;13.20;9.00;;;;;;;-142.06;100.00;64312.41;5051619;28;20719;-80
2024/01/08 08:46:57;;;;;;;11.97;8.13;;;;;;;-142.06;100.00;64312.41;5045408;28;20229;-82
2024/01/08 08:49:25;;;;;;;12.27;8.83;;;;;;;-142.06;100.00;64312.41;5032770;28;20221;-83
2024/01/08 08:51:56;;;;;;;13.80;8.50;;;;;;;-142.06;100.00;64312.41;5034544;28;20193;-80
2024/01/08 08:54:23;;;;;;;12.60;8.23;;;;;;;-142.06;100.00;64312.41;5034074;28;20197;-86
2024/01/08 08:56:50;;;;;;;12.60;7.87;;;;;;;-142.06;100.00;64312.41;5030418;28;20279;-81
2024/01/08 08:59:17;;;;;;;12.30;8.17;;;;;;;-142.06;100.00;64312.41;5031438;28;20205;-82
2024/01/08 09:01:43;;;;;;;11.63;7.57;;;;;;;-142.06;100.00;64312.41;5034932;28;20201;-81
2024/01/08 09:04:10;;;;;;;12.10;8.10;;;;;;;-142.06;100.00;64312.41;5046630;28;20208;-82
2024/01/08 09:06:37;;;;;;;12.50;8.40;;;;;;;-142.06;100.00;64312.41;5033826;28;20206;-83
2024/01/08 09:09:05;;;;;;;13.43;9.00;;;;;;;-142.06;100.00;64312.41;5051684;28;20300;-81
2024/01/08 09:11:34;;;;;;;14.40;8.90;;;;;;;-142.06;100.00;64312.41;5040939;28;20213;-83
2024/01/08 09:14:01;;;;;;;13.67;8.80;;;;;;;-142.06;100.00;64312.41;5039911;28;20201;-81
2024/01/08 09:16:28;;;;;;;13.23;8.37;;;;;;;-142.06;100.00;64312.41;5033634;28;20202;-81
2024/01/08 09:18:55;;;;;;;13.37;8.23;;;;;;;-142.06;100.00;64312.41;5051473;28;20192;-84
2024/01/08 09:21:22;;;;;;;13.60;8.07;;;;;;;-142.06;100.00;64312.41;5032967;28;20193;-82
2024/01/08 09:23:49;;;;;;;11.20;8.47;;;;;;;-142.06;100.00;64312.41;5017286;28;20202;-81
2024/01/08 09:26:16;;;;;;;11.90;7.40;;;;;;;-142.06;100.00;64312.41;5050918;28;20194;-80
2024/01/08 09:28:43;;;;;;;15.03;8.63;;;;;;;-142.06;100.00;64312.41;5051488;28;20217;-80
2024/01/08 09:31:10;;;;;;;12.47;7.87;;;;;;;-142.06;100.00;64312.41;5033632;28;20267;-81
2024/01/08 09:33:37;;;;;;;11.77;7.57;;;;;;;-142.06;100.00;64312.41;5052323;28;20189;-83
2024/01/08 09:36:04;;;;;;;12.77;8.07;;;;;;;-142.06;100.00;64312.41;5051623;28;20189;-81
2024/01/08 09:38:31;;;;;;;14.47;9.10;;;;;;;-142.06;100.00;64312.41;5051165;28;20236;-81
2024/01/08 09:40:58;;;;;;;15.13;9.00;;;;;;;-142.06;100.00;64312.41;5050490;28;20202;-82
2024/01/08 09:43:36;;;;;;;14.07;8.67;;;;;;;-142.06;100.00;64312.41;5048995;28;20219;-80
2024/01/08 09:46:09;;;;;;;14.03;9.07;;;;;;;-142.06;100.00;64312.41;5036577;28;20217;-83
2024/01/08 09:48:36;;;;;;;13.80;9.03;;;;;;;-142.06;100.00;64312.41;5052545;28;20218;-82
2024/01/08 09:51:03;;;;;;;12.03;8.33;;;;;;;-142.06;100.00;64312.41;5034623;28;20198;-82
2024/01/08 09:53:31;;;;;;;13.70;8.80;;;;;;;-142.06;100.00;64312.41;5057548;28;20208;-81
2024/01/08 09:55:59;;;;;;;18.37;8.73;;;;;;;-142.06;100.00;64312.41;5053672;28;20236;-81
2024/01/08 09:58:26;;;;;;;12.70;7.77;;;;;;;-142.06;100.00;64312.41;5053554;28;20244;-81
2024/01/08 10:00:53;;;;;;;13.60;9.03;;;;;;;-142.06;100.00;64312.41;5053411;28;20189;-81
2024/01/08 10:03:20;;;;;;;15.47;9.97;;;;;;;-142.06;100.00;64312.41;5022449;28;20289;-81
2024/01/08 10:05:48;;;;;;;15.47;9.37;;;;;;;-142.06;100.00;64312.41;5060173;28;20259;-80
2024/01/08 10:08:17;;;;;;;13.37;9.00;;;;;;;-142.06;100.00;64312.41;5036674;28;20693;-80
2024/01/08 10:10:43;;;;;;;12.17;8.53;;;;;;;-142.06;100.00;64312.41;5053954;28;20201;-81
2024/01/08 10:13:12;;;;;;;12.27;8.87;;;;;;;-142.06;100.00;64312.41;5054182;28;20686;-83
2024/01/08 10:15:38;;;;;;;15.13;9.20;;;;;;;-142.06;100.00;64312.41;5054143;28;20198;-82
2024/01/08 10:18:08;;;;;;;14.50;9.27;;;;;;;-142.06;100.00;64312.41;5055277;28;20204;-80
2024/01/08 10:20:36;;;;;;;14.30;9.17;;;;;;;-142.06;100.00;64312.41;5060378;28;20201;-80
2024/01/08 10:23:07;;;;;;;15.80;9.83;;;;;;;-142.06;100.00;64312.41;5051849;28;20312;-81
2024/01/08 10:25:36;;;;;;;13.23;8.23;;;;;;;-142.06;100.00;64312.41;5053945;28;20193;-81
2024/01/08 10:28:04;;;;;;;14.67;9.80;;;;;;;-142.06;100.00;64312.41;5053033;28;20198;-81
2024/01/08 10:30:33;;;;;;;13.80;8.93;;;;;;;-142.06;100.00;64312.41;5052896;28;20680;-82
2024/01/08 10:33:00;;;;;;;15.13;9.27;;;;;;;-142.06;100.00;64312.41;5054960;28;20202;-83
2024/01/08 10:35:30;;;;;;;14.77;9.73;;;;;;;-142.06;100.00;64312.41;5052078;28;20198;-81
2024/01/08 10:37:59;;;;;;;17.67;9.97;;;;;;;-142.06;100.00;64312.41;5015611;28;20210;-81
2024/01/08 10:40:30;;;;;;;12.23;9.00;;;;;;;-142.06;100.00;64312.41;5032764;28;20193;-81
2024/01/08 10:42:57;;;;;;;17.10;10.20;;;;;;;-142.06;100.00;64312.41;5053344;28;20727;-81
2024/01/08 10:45:23;;;;;;;15.00;9.73;;;;;;;-142.06;100.00;64312.41;5035591;28;20231;-83
2024/01/08 10:47:56;;;;;;;13.93;9.70;;;;;;;-142.06;100.00;64312.41;5049578;28;20257;-81
2024/01/08 10:50:24;;;;;;;12.40;8.37;;;;;;;-142.06;100.00;64312.41;5052562;28;20213;-81
2024/01/08 10:52:53;;;;;;;16.73;9.50;;;;;;;-142.06;100.00;64312.41;5054062;28;20277;-80
2024/01/08 10:55:21;;;;;;;17.03;10.00;;;;;;;-142.06;100.00;64312.41;5054196;28;20283;-81
2024/01/08 10:58:16;;;;;;;14.37;9.70;;;;;;;-142.06;100.00;64312.41;5051126;28;20688;-82
2024/01/08 11:00:43;;;;;;;16.07;10.40;;;;;;;-142.06;100.00;64312.41;5034215;28;20206;-80
2024/01/08 11:03:10;;;;;;;17.43;10.87;;;;;;;-142.06;100.00;64312.41;5053520;28;20692;-80
2024/01/08 11:05:38;;;;;;;17.67;11.23;;;;;;;-142.06;100.00;64312.41;5050975;28;20198;-83